createdAt,value
2023-02-11T00:01:37.702Z,87.74
2023-02-11T00:04:05.072Z,87.89
2023-02-11T00:06:32.248Z,87.63
2023-02-11T00:08:58.835Z,87.24
2023-02-11T00:11:26.530Z,86.37
2023-02-11T00:13:53.063Z,86.64
2023-02-11T00:16:20.338Z,88.69
2023-02-11T00:18:46.986Z,88.19
2023-02-11T00:21:15.241Z,87.59
2023-02-11T00:23:41.942Z,87.21
2023-02-11T00:26:24.468Z,87.43
2023-02-11T00:28:51.093Z,87.93
2023-02-11T00:31:18.498Z,88.08
2023-02-11T00:33:45.714Z,88.83
2023-02-11T00:36:17.462Z,88.45
2023-02-11T00:38:44.543Z,87.91
2023-02-11T00:41:11.741Z,88.67
2023-02-11T00:43:38.221Z,88.65
2023-02-11T00:46:04.832Z,89.54
2023-02-11T00:48:31.408Z,89.39
2023-02-11T00:50:58.281Z,88.81
2023-02-11T00:53:25.085Z,88.95
2023-02-11T00:55:51.906Z,89.07
2023-02-11T00:58:18.580Z,89.50
2023-02-11T01:00:45.060Z,90.89
2023-02-11T01:03:11.601Z,90.21
2023-02-11T01:05:38.188Z,89.90
2023-02-11T01:08:05.078Z,89.10
2023-02-11T01:10:31.744Z,88.08
2023-02-11T01:12:58.272Z,88.10
2023-02-11T01:15:24.782Z,87.00
2023-02-11T01:17:51.394Z,88.10
2023-02-11T01:20:21.432Z,87.87
2023-02-11T01:22:48.003Z,87.99
2023-02-11T01:25:14.577Z,87.97
2023-02-11T01:27:41.125Z,88.21
2023-02-11T01:30:08.611Z,88.75
2023-02-11T01:32:35.219Z,90.42
2023-02-11T01:35:01.727Z,90.02
2023-02-11T01:37:28.302Z,89.84
2023-02-11T01:39:55.006Z,88.95
2023-02-11T01:42:23.265Z,88.22
2023-02-11T01:44:51.416Z,88.67
2023-02-11T01:47:18.951Z,88.27
2023-02-11T01:49:47.703Z,87.99
2023-02-11T01:52:30.743Z,88.62
2023-02-11T01:55:19.272Z,89.87
2023-02-11T01:57:48.017Z,89.66
2023-02-11T02:00:14.651Z,89.00
2023-02-11T02:02:46.481Z,89.46
2023-02-11T02:05:34.311Z,89.72
2023-02-11T02:08:11.741Z,88.59
2023-02-11T02:10:38.494Z,89.20
2023-02-11T02:13:04.970Z,89.57
2023-02-11T02:15:35.386Z,89.98
2023-02-11T02:18:03.217Z,89.76
2023-02-11T02:20:56.634Z,89.51
2023-02-11T02:23:25.783Z,89.04
2023-02-11T02:26:10.977Z,88.38
2023-02-11T02:29:02.741Z,88.33
2023-02-11T02:31:41.367Z,88.63
2023-02-11T02:34:15.959Z,89.60
2023-02-11T02:37:01.919Z,89.74
2023-02-11T02:39:31.068Z,88.91
2023-02-11T02:41:57.590Z,88.86
2023-02-11T02:44:24.073Z,88.23
2023-02-11T02:46:50.725Z,88.74
2023-02-11T02:49:17.293Z,89.44
2023-02-11T02:52:21.465Z,88.56
2023-02-11T02:55:06.450Z,89.87
2023-02-11T02:57:45.888Z,89.03
2023-02-11T03:00:37.578Z,89.37
2023-02-11T03:03:27.438Z,89.08
2023-02-11T03:06:08.849Z,88.54
2023-02-11T03:08:42.383Z,87.45
2023-02-11T03:11:09.704Z,87.25
2023-02-11T03:13:36.707Z,87.70
2023-02-11T03:16:09.836Z,88.18
2023-02-11T03:18:36.856Z,88.63
2023-02-11T03:21:03.447Z,88.73
2023-02-11T03:23:35.860Z,88.60
2023-02-11T03:26:14.855Z,88.96
2023-02-11T03:29:08.386Z,88.93
2023-02-11T03:31:50.979Z,88.94
2023-02-11T03:34:38.351Z,88.69
2023-02-11T03:37:32.784Z,88.80
2023-02-11T03:40:08.450Z,88.55
2023-02-11T03:42:46.512Z,88.36
2023-02-11T03:45:15.582Z,88.53
2023-02-11T03:47:45.684Z,88.88
2023-02-11T03:50:12.592Z,88.83
2023-02-11T03:52:39.220Z,88.52
2023-02-11T03:55:11.238Z,89.30
2023-02-11T03:57:37.963Z,89.55
2023-02-11T04:00:05.091Z,88.88
2023-02-11T04:02:33.687Z,88.66
2023-02-11T04:05:00.408Z,88.95
2023-02-11T04:07:27.071Z,88.33
2023-02-11T04:09:53.625Z,88.72
2023-02-11T04:12:20.140Z,88.64
2023-02-11T04:14:46.707Z,88.81
2023-02-11T04:17:13.219Z,89.12
2023-02-11T04:19:39.781Z,89.05
2023-02-11T04:22:06.395Z,88.72
2023-02-11T04:24:32.856Z,88.40
2023-02-11T04:26:59.334Z,88.06
2023-02-11T04:29:25.897Z,87.24
2023-02-11T04:31:52.422Z,87.44
2023-02-11T04:34:18.921Z,87.35
2023-02-11T04:36:45.609Z,87.01
2023-02-11T04:39:12.094Z,86.73
2023-02-11T04:41:38.576Z,86.66
2023-02-11T04:44:05.301Z,85.98
2023-02-11T04:46:31.859Z,86.26
2023-02-11T04:48:58.384Z,85.87
2023-02-11T04:51:24.946Z,85.98
2023-02-11T04:53:51.458Z,86.28
2023-02-11T04:56:17.962Z,86.68
2023-02-11T04:58:44.484Z,86.66
2023-02-11T05:01:12.798Z,86.54
2023-02-11T05:03:39.318Z,86.24
2023-02-11T05:06:06.257Z,86.38
2023-02-11T05:08:32.934Z,87.14
2023-02-11T05:10:59.518Z,86.58
2023-02-11T05:13:26.075Z,86.50
2023-02-11T05:15:52.909Z,86.19
2023-02-11T05:18:19.557Z,86.13
2023-02-11T05:20:46.096Z,86.59
2023-02-11T05:23:12.601Z,86.66
2023-02-11T05:25:39.133Z,86.69
2023-02-11T05:28:05.954Z,86.47
2023-02-11T05:30:32.565Z,86.04
2023-02-11T05:32:59.050Z,86.49
2023-02-11T05:35:25.559Z,86.84
2023-02-11T05:37:52.118Z,86.18
2023-02-11T05:40:18.595Z,87.18
2023-02-11T05:42:45.132Z,86.27
2023-02-11T05:45:11.685Z,85.28
2023-02-11T05:47:38.152Z,85.04
2023-02-11T05:50:04.754Z,85.72
2023-02-11T05:52:31.232Z,85.45
2023-02-11T05:54:57.932Z,84.79
2023-02-11T05:57:24.478Z,84.42
2023-02-11T05:59:50.936Z,84.81
2023-02-11T06:02:17.433Z,84.60
2023-02-11T06:04:44.383Z,84.73
2023-02-11T06:07:10.863Z,83.64
2023-02-11T06:09:37.741Z,83.47
2023-02-11T06:12:04.486Z,83.82
2023-02-11T06:14:33.547Z,84.08
2023-02-11T06:17:00.302Z,83.84
2023-02-11T06:19:26.999Z,83.31
2023-02-11T06:21:53.530Z,83.15
2023-02-11T06:24:38.413Z,83.58
2023-02-11T06:27:06.526Z,83.98
2023-02-11T06:29:33.076Z,83.61
2023-02-11T06:31:59.641Z,83.84
2023-02-11T06:34:26.179Z,84.56
2023-02-11T06:36:52.643Z,83.20
2023-02-11T06:39:19.208Z,82.59
2023-02-11T06:41:45.742Z,82.54
2023-02-11T06:44:12.263Z,81.80
2023-02-11T06:46:38.793Z,82.73
2023-02-11T06:49:05.375Z,83.14
2023-02-11T06:51:31.872Z,83.47
2023-02-11T06:53:58.411Z,83.26
2023-02-11T06:56:27.369Z,83.71
2023-02-11T06:58:55.397Z,82.66
2023-02-11T07:01:22.374Z,82.27
2023-02-11T07:03:48.906Z,83.15
2023-02-11T07:06:17.098Z,83.04
2023-02-11T07:08:45.804Z,81.51
2023-02-11T07:11:13.931Z,82.00
2023-02-11T07:13:40.448Z,82.41
2023-02-11T07:16:07.623Z,81.70
2023-02-11T07:18:34.162Z,82.07
2023-02-11T07:21:04.069Z,82.10
2023-02-11T07:23:30.535Z,81.29
2023-02-11T07:25:57.133Z,81.62
2023-02-11T07:28:23.642Z,81.79
2023-02-11T07:30:50.177Z,81.32
2023-02-11T07:33:16.738Z,81.31
2023-02-11T07:35:43.252Z,81.33
2023-02-11T07:38:09.814Z,81.09
2023-02-11T07:40:36.626Z,81.37
2023-02-11T07:43:03.168Z,80.98
2023-02-11T07:45:29.677Z,80.76
2023-02-11T07:47:56.201Z,81.10
2023-02-11T07:50:22.701Z,80.31
2023-02-11T07:52:49.212Z,80.54
2023-02-11T07:55:15.768Z,80.90
2023-02-11T07:57:42.314Z,80.81
2023-02-11T08:00:09.357Z,81.69
2023-02-11T08:02:35.905Z,81.38
2023-02-11T08:05:02.474Z,81.47
2023-02-11T08:07:29.659Z,81.47
2023-02-11T08:09:56.263Z,81.32
2023-02-11T08:12:22.793Z,81.09
2023-02-11T08:14:49.275Z,80.61
2023-02-11T08:17:15.807Z,79.48
2023-02-11T08:19:42.454Z,78.93
2023-02-11T08:22:08.919Z,79.08
2023-02-11T08:24:35.489Z,78.18
2023-02-11T08:27:02.004Z,78.73
2023-02-11T08:29:28.498Z,78.06
2023-02-11T08:31:55.231Z,77.59
2023-02-11T08:34:21.988Z,77.31
2023-02-11T08:36:48.654Z,77.01
2023-02-11T08:39:20.768Z,75.67
2023-02-11T08:41:52.353Z,75.78
2023-02-11T08:44:19.560Z,75.54
2023-02-11T08:46:46.338Z,75.26
2023-02-11T08:49:12.862Z,75.22
2023-02-11T08:51:39.388Z,74.90
2023-02-11T08:54:09.455Z,73.78
2023-02-11T08:56:36.809Z,74.27
2023-02-11T08:59:03.384Z,74.02
2023-02-11T09:01:30.630Z,74.31
2023-02-11T09:03:57.978Z,74.30
2023-02-11T09:06:25.005Z,72.79
2023-02-11T09:08:53.058Z,73.40
2023-02-11T09:11:21.210Z,73.33
2023-02-11T09:13:47.925Z,74.34
2023-02-11T09:16:22.486Z,74.20
2023-02-11T09:18:49.254Z,74.88
2023-02-11T09:21:16.154Z,74.90
2023-02-11T09:23:44.679Z,75.39
2023-02-11T09:26:20.165Z,74.75
2023-02-11T09:28:47.069Z,75.34
2023-02-11T09:31:15.558Z,75.27
2023-02-11T09:33:48.146Z,75.44
2023-02-11T09:36:19.489Z,73.96
2023-02-11T09:38:46.266Z,74.20
2023-02-11T09:41:40.877Z,74.52
2023-02-11T09:44:09.578Z,73.27
2023-02-11T09:46:37.950Z,73.51
2023-02-11T09:49:04.971Z,74.13
2023-02-11T09:51:40.466Z,73.22
2023-02-11T09:54:34.672Z,74.12
2023-02-11T09:57:01.274Z,73.90
2023-02-11T09:59:27.755Z,74.23
2023-02-11T10:02:04.777Z,73.73
2023-02-11T10:04:45.540Z,73.34
2023-02-11T10:07:25.300Z,73.19
2023-02-11T10:10:15.416Z,73.61
2023-02-11T10:12:52.993Z,71.25
2023-02-11T10:15:44.567Z,71.85
2023-02-11T10:18:48.565Z,71.90
2023-02-11T10:21:15.014Z,71.82
2023-02-11T10:23:43.411Z,70.06
2023-02-11T10:26:15.059Z,70.77
2023-02-11T10:28:43.851Z,71.65
2023-02-11T10:31:16.198Z,72.38
2023-02-11T10:33:44.151Z,70.99
2023-02-11T10:36:14.217Z,71.45
2023-02-11T10:38:40.783Z,71.59
2023-02-11T10:41:10.533Z,71.90
2023-02-11T10:43:37.023Z,71.28
2023-02-11T10:46:03.656Z,72.19
2023-02-11T10:48:51.375Z,70.54
2023-02-11T10:51:27.673Z,71.76
2023-02-11T10:54:21.111Z,71.77
2023-02-11T10:56:55.181Z,71.89
2023-02-11T10:59:28.341Z,72.05
2023-02-11T11:02:06.332Z,72.08
2023-02-11T11:04:45.325Z,72.68
2023-02-11T11:07:13.167Z,70.92
2023-02-11T11:10:00.313Z,70.96
2023-02-11T11:12:44.908Z,71.57
2023-02-11T11:15:11.305Z,70.28
2023-02-11T11:17:38.031Z,70.80
2023-02-11T11:20:27.546Z,71.21
2023-02-11T11:23:08.462Z,71.45
2023-02-11T11:25:34.953Z,71.50
2023-02-11T11:28:01.495Z,71.69
2023-02-11T11:30:33.235Z,69.94
2023-02-11T11:33:00.024Z,71.31
2023-02-11T11:35:30.329Z,71.42
2023-02-11T11:38:02.025Z,70.90
2023-02-11T11:40:33.081Z,71.12
2023-02-11T11:43:05.576Z,71.10
2023-02-11T11:45:32.050Z,70.03
2023-02-11T11:48:10.408Z,70.35
2023-02-11T11:50:48.916Z,70.47
2023-02-11T11:53:40.303Z,68.80
2023-02-11T11:56:16.151Z,69.08
2023-02-11T11:58:42.656Z,69.35
2023-02-11T12:01:28.006Z,69.91
2023-02-11T12:04:18.537Z,69.86
2023-02-11T12:07:00.983Z,69.64
2023-02-11T12:09:37.349Z,68.24
2023-02-11T12:12:16.827Z,68.05
2023-02-11T12:14:55.350Z,68.04
2023-02-11T12:17:38.985Z,64.86
2023-02-11T12:20:33.348Z,69.69
2023-02-11T12:23:27.160Z,70.33
2023-02-11T12:26:26.341Z,69.32
2023-02-11T12:29:11.354Z,68.99
2023-02-11T12:31:47.300Z,68.34
2023-02-11T12:34:32.073Z,68.47
2023-02-11T12:37:08.158Z,67.45
2023-02-11T12:39:45.452Z,65.35
2023-02-11T12:42:49.507Z,66.35
2023-02-11T12:45:42.796Z,65.10
2023-02-11T12:48:13.044Z,65.69
2023-02-11T12:51:14.770Z,66.65
2023-02-11T12:53:47.377Z,67.76
2023-02-11T12:56:22.157Z,68.12
2023-02-11T12:58:48.969Z,67.69
2023-02-11T13:01:50.558Z,67.99
2023-02-11T13:04:37.090Z,67.91
2023-02-11T13:07:32.359Z,67.84
2023-02-11T13:10:02.671Z,67.71
2023-02-11T13:12:48.348Z,68.18
2023-02-11T13:15:15.039Z,67.76
2023-02-11T13:17:49.734Z,68.79
2023-02-11T13:20:37.023Z,68.16
2023-02-11T13:23:18.790Z,67.89
2023-02-11T13:26:10.989Z,69.43
2023-02-11T13:28:48.774Z,67.45
2023-02-11T13:31:16.834Z,66.81
2023-02-11T13:33:44.335Z,66.52
2023-02-11T13:36:13.055Z,67.79
2023-02-11T13:38:39.611Z,68.02
2023-02-11T13:41:17.135Z,68.90
2023-02-11T13:43:43.697Z,69.05
2023-02-11T13:46:13.779Z,68.56
2023-02-11T13:48:46.341Z,67.62
2023-02-11T13:51:14.985Z,68.60
2023-02-11T13:53:51.411Z,68.49
2023-02-11T13:56:32.659Z,68.07
2023-02-11T13:59:02.118Z,67.86
2023-02-11T14:02:06.973Z,66.38
2023-02-11T14:04:52.596Z,67.26
2023-02-11T14:07:48.457Z,66.56
2023-02-11T14:10:43.108Z,66.79
2023-02-11T14:13:33.053Z,66.60
2023-02-11T14:16:17.116Z,66.08
2023-02-11T14:18:51.874Z,64.74
2023-02-11T14:21:27.343Z,68.97
2023-02-11T14:23:55.939Z,70.08
2023-02-11T14:27:01.671Z,69.30
2023-02-11T14:29:46.180Z,70.36
2023-02-11T14:32:47.689Z,69.97
2023-02-11T14:35:36.512Z,69.44
2023-02-11T14:38:26.217Z,69.93
2023-02-11T14:41:05.680Z,68.75
2023-02-11T14:43:36.496Z,71.19
2023-02-11T14:46:03.167Z,70.88
2023-02-11T14:48:31.343Z,70.58
2023-02-11T14:51:00.667Z,70.60
2023-02-11T14:53:27.243Z,69.50
2023-02-11T14:55:54.341Z,69.70
2023-02-11T14:58:31.636Z,69.52
2023-02-11T15:00:59.213Z,70.46
2023-02-11T15:03:31.790Z,69.78
2023-02-11T15:06:19.815Z,70.82
2023-02-11T15:09:01.098Z,71.47
2023-02-11T15:11:32.241Z,71.59
2023-02-11T15:14:06.878Z,71.42
2023-02-11T15:16:33.376Z,71.70
2023-02-11T15:19:02.541Z,70.83
2023-02-11T15:21:30.221Z,70.78
2023-02-11T15:24:20.924Z,72.20
2023-02-11T15:27:21.048Z,71.40
2023-02-11T15:29:51.627Z,72.48
2023-02-11T15:32:18.956Z,72.82
2023-02-11T15:34:45.929Z,72.88
2023-02-11T15:37:14.503Z,72.71
2023-02-11T15:39:41.982Z,73.86
2023-02-11T15:42:27.643Z,73.44
2023-02-11T15:45:15.668Z,72.44
2023-02-11T15:47:47.204Z,72.45
2023-02-11T15:50:27.757Z,72.00
2023-02-11T15:52:54.988Z,73.03
2023-02-11T15:55:21.503Z,73.25
2023-02-11T15:57:52.498Z,73.70
2023-02-11T16:00:21.267Z,74.43
2023-02-11T16:02:48.664Z,73.40
2023-02-11T16:05:31.156Z,72.86
2023-02-11T16:07:58.016Z,73.04
2023-02-11T16:10:33.760Z,73.01
2023-02-11T16:13:17.358Z,73.88
2023-02-11T16:15:50.941Z,72.93
2023-02-11T16:18:40.006Z,73.78
2023-02-11T16:21:14.650Z,75.54
2023-02-11T16:23:44.112Z,75.69
2023-02-11T16:26:39.459Z,76.99
2023-02-11T16:29:14.409Z,76.81
2023-02-11T16:31:42.636Z,79.00
2023-02-11T16:34:16.336Z,79.75
2023-02-11T16:36:42.913Z,79.77
2023-02-11T16:39:09.782Z,78.06
2023-02-11T16:41:36.305Z,77.92
2023-02-11T16:44:02.947Z,77.93
2023-02-11T16:46:29.541Z,77.11
2023-02-11T16:48:56.223Z,76.66
2023-02-11T16:51:22.790Z,75.76
2023-02-11T16:53:49.294Z,74.63
2023-02-11T16:56:16.813Z,75.00
2023-02-11T16:58:44.447Z,76.57
2023-02-11T17:01:13.527Z,76.71
2023-02-11T17:03:40.583Z,76.01
2023-02-11T17:06:09.076Z,75.18
2023-02-11T17:08:35.793Z,75.52
2023-02-11T17:11:02.901Z,77.65
2023-02-11T17:13:29.454Z,79.12
2023-02-11T17:15:56.091Z,77.75
2023-02-11T17:18:22.664Z,77.50
2023-02-11T17:20:49.176Z,77.83
2023-02-11T17:23:15.720Z,79.08
2023-02-11T17:25:42.269Z,77.43
2023-02-11T17:28:09.000Z,77.18
2023-02-11T17:30:35.597Z,76.62
2023-02-11T17:33:02.065Z,76.64
2023-02-11T17:35:28.584Z,77.31
2023-02-11T17:37:55.125Z,77.33
2023-02-11T17:40:21.749Z,77.79
2023-02-11T17:42:48.464Z,79.23
2023-02-11T17:45:15.229Z,79.37
2023-02-11T17:47:41.760Z,79.35
2023-02-11T17:50:08.822Z,79.64
2023-02-11T17:52:36.566Z,79.04
2023-02-11T17:55:03.132Z,77.97
2023-02-11T17:57:29.772Z,77.60
2023-02-11T17:59:56.268Z,77.04
2023-02-11T18:02:22.795Z,77.07
2023-02-11T18:04:49.627Z,77.14
2023-02-11T18:07:16.213Z,78.04
2023-02-11T18:09:42.912Z,79.61
2023-02-11T18:12:10.656Z,79.08
2023-02-11T18:14:40.509Z,79.16
2023-02-11T18:17:07.233Z,79.89
2023-02-11T18:19:35.930Z,79.71
2023-02-11T18:22:04.218Z,78.17
2023-02-11T18:24:31.049Z,77.67
2023-02-11T18:26:57.652Z,77.75
2023-02-11T18:29:24.173Z,78.28
2023-02-11T18:31:50.852Z,78.39
2023-02-11T18:34:17.480Z,77.26
2023-02-11T18:36:44.386Z,77.38
2023-02-11T18:39:10.912Z,77.03
2023-02-11T18:41:40.084Z,77.46
2023-02-11T18:44:06.800Z,77.37
2023-02-11T18:46:33.525Z,77.59
2023-02-11T18:49:00.111Z,78.34
2023-02-11T18:51:26.654Z,79.70
2023-02-11T18:53:53.227Z,79.73
2023-02-11T18:56:21.781Z,79.06
2023-02-11T18:58:48.865Z,77.90
2023-02-11T19:01:20.929Z,77.57
2023-02-11T19:03:48.324Z,77.55
2023-02-11T19:06:19.904Z,78.26
2023-02-11T19:08:46.403Z,79.84
2023-02-11T19:11:13.273Z,80.64
2023-02-11T19:13:39.835Z,81.24
2023-02-11T19:16:11.360Z,80.65
2023-02-11T19:18:38.700Z,80.68
2023-02-11T19:21:09.290Z,80.70
2023-02-11T19:23:35.830Z,81.52
2023-02-11T19:26:04.523Z,81.97
2023-02-11T19:28:31.798Z,82.46
2023-02-11T19:30:58.365Z,81.71
2023-02-11T19:33:24.917Z,82.25
2023-02-11T19:35:51.666Z,81.91
2023-02-11T19:38:19.100Z,82.04
2023-02-11T19:40:45.599Z,82.97
2023-02-11T19:43:12.078Z,82.23
2023-02-11T19:45:38.548Z,81.69
2023-02-11T19:48:05.242Z,82.13
2023-02-11T19:50:31.731Z,82.40
2023-02-11T19:52:58.296Z,82.70
2023-02-11T19:55:24.841Z,82.48
2023-02-11T19:57:51.350Z,81.98
2023-02-11T20:00:18.448Z,81.76
2023-02-11T20:02:47.113Z,82.63
2023-02-11T20:05:14.084Z,82.47
2023-02-11T20:07:40.575Z,82.16
2023-02-11T20:10:08.102Z,82.42
2023-02-11T20:12:34.592Z,82.38
2023-02-11T20:15:01.086Z,81.90
2023-02-11T20:17:28.239Z,81.34
2023-02-11T20:19:54.792Z,81.58
2023-02-11T20:22:21.292Z,82.22
2023-02-11T20:24:48.305Z,82.66
2023-02-11T20:27:14.893Z,83.00
2023-02-11T20:29:41.564Z,82.97
2023-02-11T20:32:11.086Z,82.04
2023-02-11T20:34:37.689Z,81.67
2023-02-11T20:37:04.794Z,81.43
2023-02-11T20:39:31.443Z,82.04
2023-02-11T20:42:01.087Z,82.79
2023-02-11T20:44:27.664Z,83.28
2023-02-11T20:46:54.623Z,82.96
2023-02-11T20:49:22.877Z,83.23
2023-02-11T20:51:53.675Z,82.94
2023-02-11T20:54:20.556Z,83.80
2023-02-11T20:56:48.195Z,82.95
2023-02-11T20:59:14.957Z,83.28
2023-02-11T21:01:43.303Z,83.71
2023-02-11T21:04:30.339Z,83.57
2023-02-11T21:06:58.880Z,84.13
2023-02-11T21:09:27.210Z,83.78
2023-02-11T21:11:54.109Z,83.52
2023-02-11T21:14:22.160Z,83.56
2023-02-11T21:16:48.703Z,83.28
2023-02-11T21:19:15.413Z,83.87
2023-02-11T21:21:45.465Z,83.13
2023-02-11T21:24:11.977Z,81.41
2023-02-11T21:26:38.590Z,81.29
2023-02-11T21:29:05.667Z,81.50
2023-02-11T21:31:32.851Z,81.93
2023-02-11T21:33:59.566Z,81.95
2023-02-11T21:36:27.900Z,82.49
2023-02-11T21:38:54.457Z,82.65
2023-02-11T21:41:22.382Z,83.14
2023-02-11T21:43:49.432Z,83.55
2023-02-11T21:46:16.413Z,82.60
2023-02-11T21:48:42.973Z,82.48
2023-02-11T21:51:12.943Z,82.82
2023-02-11T21:53:39.471Z,82.29
2023-02-11T21:56:16.376Z,81.44
2023-02-11T21:58:43.286Z,82.09
2023-02-11T22:01:14.181Z,82.12
2023-02-11T22:03:40.787Z,82.25
2023-02-11T22:06:08.931Z,81.98
2023-02-11T22:08:35.497Z,81.82
2023-02-11T22:11:04.005Z,81.72
2023-02-11T22:13:30.609Z,82.32
2023-02-11T22:15:58.914Z,80.17
2023-02-11T22:18:25.506Z,80.06
2023-02-11T22:21:24.662Z,80.77
2023-02-11T22:23:51.673Z,81.63
2023-02-11T22:26:20.349Z,82.24
2023-02-11T22:28:46.920Z,82.29
2023-02-11T22:31:15.465Z,81.97
2023-02-11T22:33:42.166Z,82.66
2023-02-11T22:36:14.536Z,82.95
2023-02-11T22:38:41.123Z,83.93
2023-02-11T22:41:09.332Z,84.11
2023-02-11T22:43:35.955Z,84.06
2023-02-11T22:46:03.301Z,83.48
2023-02-11T22:48:29.905Z,83.91
2023-02-11T22:50:56.463Z,84.75
2023-02-11T22:53:25.478Z,83.95
2023-02-11T22:55:52.340Z,84.43
2023-02-11T22:58:18.993Z,84.50
2023-02-11T23:00:45.489Z,84.67
2023-02-11T23:03:11.976Z,83.96
2023-02-11T23:05:41.716Z,83.53
2023-02-11T23:08:09.028Z,83.60
2023-02-11T23:10:36.343Z,83.75
2023-02-11T23:13:03.488Z,83.83
2023-02-11T23:15:30.001Z,83.87
2023-02-11T23:17:56.519Z,83.73
2023-02-11T23:20:23.025Z,84.59
2023-02-11T23:22:49.586Z,84.94
2023-02-11T23:25:16.183Z,84.73
2023-02-11T23:27:42.648Z,83.75
2023-02-11T23:30:09.699Z,84.49
2023-02-11T23:32:38.818Z,84.24
2023-02-11T23:35:05.553Z,83.67
2023-02-11T23:37:32.038Z,83.85
2023-02-11T23:39:58.545Z,84.04
2023-02-11T23:42:25.278Z,84.30
2023-02-11T23:44:51.827Z,83.91
2023-02-11T23:47:18.298Z,83.54
2023-02-11T23:49:44.738Z,82.25
2023-02-11T23:52:11.227Z,83.44
2023-02-11T23:54:37.691Z,83.31
2023-02-11T23:57:04.172Z,83.49
2023-02-11T23:59:30.721Z,83.76
